Sanko Independence — A8QJ9 — position and weather

sailwx.info

Track history (hours):
 
Tides and Currents Weather Stations Pressure Air Temp Water Temp Dewpoint Dewpoint Depression Visibility Wind Speed Wind Dir Waves Ship Positions

Sanko Independence

Last reported at 2014-Aug-30 07:31 UTC. Time now 2014-Aug-30 10:32 UTC.
Position N 36°58' E 001°47'.

Length 174 m; draft 7.8 m.

Type: Ship (hazmat cat C). MMSI: 636013946.

Date/timePositionNaut miles runAvg speedWind from/ knotsBaromVisibWave heightAir tempDewpointWater temp
2014-Aug-30 07:31N 36°58' E 001°47'6015.3
2014-Aug-30 03:33N 36°46' E 000°33'1515.1
2014-Aug-30 02:33N 36°42' E 000°15'1514.9
2014-Aug-30 01:33N 36°39' W 000°03'1514.5
2014-Aug-30 00:33N 36°36' W 000°21'1514.6
2014-Aug-29 23:33N 36°33' W 000°39'1514.6
2014-Aug-29 22:33N 36°31' W 000°57'1514.6
2014-Aug-29 21:33N 36°28' W 001°15'1514.7
2014-Aug-29 20:33N 36°25' W 001°33'1514.6
2014-Aug-29 19:33N 36°22' W 001°50'1514.8
2014-Aug-29 18:34N 36°19' W 002°08'1514.8
2014-Aug-29 17:33N 36°16' W 002°26'2214.9
2014-Aug-29 16:04N 36°12' W 002°53'119 4.3
2014-Aug-28 12:34N 36°00' W 005°20'10214.2
2014-Aug-28 05:21N 34°56' W 006°57'1214.7
2014-Aug-28 04:31N 34°46' W 007°06'2014.8
2014-Aug-28 03:10N 34°31' W 007°21'914.8
2014-Aug-28 02:33N 34°24' W 007°28'9510.5
2014-Aug-27 17:26N 33°08' W 008°38'0 0.0
2014-Aug-27 16:23N 33°08' W 008°38'0 0.0
2014-Aug-27 15:23N 33°08' W 008°38'0 0.0
2014-Aug-27 07:32N 33°08' W 008°38'0 0.0
2014-Aug-27 04:17N 33°08' W 008°38'0 0.0
2014-Aug-27 03:29N 33°08' W 008°38'0 0.0
2014-Aug-27 02:32N 33°08' W 008°38'0 0.0
2014-Aug-27 01:32N 33°08' W 008°38'0 0.0
2014-Aug-27 00:05N 33°08' W 008°38'4 0.1
2014-Aug-25 14:31N 33°07' W 008°43'  
2014-Aug-22 03:18N 35°59' W 005°31'1112.8
2014-Aug-22 02:29N 36°07' W 005°22'1 0.2
2014-Aug-21 21:23N 36°07' W 005°22'0 0.0
2014-Aug-21 20:11N 36°07' W 005°22'0 0.0
2014-Aug-21 19:17N 36°07' W 005°22'0 0.1
2014-Aug-21 18:27N 36°07' W 005°22'2 2.3
2014-Aug-21 17:33N 36°05' W 005°21'6 5.7
2014-Aug-21 16:26N 36°05' W 005°13'1 1.3
2014-Aug-21 15:33N 36°05' W 005°15'17414.1
2014-Aug-21 03:08N 36°24' W 001°40'1015.8
2014-Aug-21 02:32N 36°26' W 001°28'1716.2
2014-Aug-21 01:28N 36°30' W 001°07'1414.9
2014-Aug-21 00:32N 36°31' W 000°50'1514.9
2014-Aug-20 23:33N 36°35' W 000°33'1614.9
2014-Aug-20 22:28N 36°38' W 000°13'1314.2
2014-Aug-20 21:32N 36°40' E 000°04'1514.9
2014-Aug-20 20:33N 36°44' E 000°21'1615.5
2014-Aug-20 19:34N 36°47' E 000°40'1515.4
2014-Aug-20 18:33N 36°50' E 000°59'1515.4
2014-Aug-20 17:33N 36°53' E 001°18'1515.0
2014-Aug-20 16:33N 36°56' E 001°36'1615.2
2014-Aug-20 15:29N 37°00' E 001°56'1515.5
2014-Aug-20 14:33N 37°03' E 002°14'1915.5
2014-Aug-20 13:18N 37°07' E 002°38'  
Track history (hours):
 
Tides and Currents Weather Stations Pressure Air Temp Water Temp Dewpoint Dewpoint Depression Visibility Wind Speed Wind Dir Waves Ship Positions

Sanko Independence

Last reported at 2014-Aug-30 07:31 UTC. Time now 2014-Aug-30 10:32 UTC.
Position N 36°58' E 001°47'.

Length 174 m; draft 7.8 m.

Type: Ship (hazmat cat C). MMSI: 636013946.

Date/timePositionNaut miles runAvg speedWind from/ knotsBaromVisibWave heightAir tempDewpointWater temp
2014-Aug-30 07:31N 36°58' E 001°47'6015.3
2014-Aug-30 03:33N 36°46' E 000°33'1515.1
2014-Aug-30 02:33N 36°42' E 000°15'1514.9
2014-Aug-30 01:33N 36°39' W 000°03'1514.5
2014-Aug-30 00:33N 36°36' W 000°21'1514.6
2014-Aug-29 23:33N 36°33' W 000°39'1514.6
2014-Aug-29 22:33N 36°31' W 000°57'1514.6
2014-Aug-29 21:33N 36°28' W 001°15'1514.7
2014-Aug-29 20:33N 36°25' W 001°33'1514.6
2014-Aug-29 19:33N 36°22' W 001°50'1514.8
2014-Aug-29 18:34N 36°19' W 002°08'1514.8
2014-Aug-29 17:33N 36°16' W 002°26'2214.9
2014-Aug-29 16:04N 36°12' W 002°53'119 4.3
2014-Aug-28 12:34N 36°00' W 005°20'10214.2
2014-Aug-28 05:21N 34°56' W 006°57'1214.7
2014-Aug-28 04:31N 34°46' W 007°06'2014.8
2014-Aug-28 03:10N 34°31' W 007°21'914.8
2014-Aug-28 02:33N 34°24' W 007°28'9510.5
2014-Aug-27 17:26N 33°08' W 008°38'0 0.0
2014-Aug-27 16:23N 33°08' W 008°38'0 0.0
2014-Aug-27 15:23N 33°08' W 008°38'0 0.0
2014-Aug-27 07:32N 33°08' W 008°38'0 0.0
2014-Aug-27 04:17N 33°08' W 008°38'0 0.0
2014-Aug-27 03:29N 33°08' W 008°38'0 0.0
2014-Aug-27 02:32N 33°08' W 008°38'0 0.0
2014-Aug-27 01:32N 33°08' W 008°38'0 0.0
2014-Aug-27 00:05N 33°08' W 008°38'4 0.1
2014-Aug-25 14:31N 33°07' W 008°43'  
2014-Aug-22 03:18N 35°59' W 005°31'1112.8
2014-Aug-22 02:29N 36°07' W 005°22'1 0.2
2014-Aug-21 21:23N 36°07' W 005°22'0 0.0
2014-Aug-21 20:11N 36°07' W 005°22'0 0.0
2014-Aug-21 19:17N 36°07' W 005°22'0 0.1
2014-Aug-21 18:27N 36°07' W 005°22'2 2.3
2014-Aug-21 17:33N 36°05' W 005°21'6 5.7
2014-Aug-21 16:26N 36°05' W 005°13'1 1.3
2014-Aug-21 15:33N 36°05' W 005°15'17414.1
2014-Aug-21 03:08N 36°24' W 001°40'1015.8
2014-Aug-21 02:32N 36°26' W 001°28'1716.2
2014-Aug-21 01:28N 36°30' W 001°07'1414.9
2014-Aug-21 00:32N 36°31' W 000°50'1514.9
2014-Aug-20 23:33N 36°35' W 000°33'1614.9
2014-Aug-20 22:28N 36°38' W 000°13'1314.2
2014-Aug-20 21:32N 36°40' E 000°04'1514.9
2014-Aug-20 20:33N 36°44' E 000°21'1615.5
2014-Aug-20 19:34N 36°47' E 000°40'1515.4
2014-Aug-20 18:33N 36°50' E 000°59'1515.4
2014-Aug-20 17:33N 36°53' E 001°18'1515.0
2014-Aug-20 16:33N 36°56' E 001°36'1615.2
2014-Aug-20 15:29N 37°00' E 001°56'1515.5
2014-Aug-20 14:33N 37°03' E 002°14'1915.5
2014-Aug-20 13:18N 37°07' E 002°38'  

Dump ship's entire track history